sensor_id;sensor_type;location;lat;lon;timestamp;pressure;altitude;pressure_sealevel;temperature;humidity
29385;BME280;16367;48.736;9.218;2023-04-01T00:00:47;-23405.63;;;7.50;100.00
29385;BME280;16367;48.736;9.218;2023-04-01T00:02:50;-23405.63;;;7.50;100.00
29385;BME280;16367;48.736;9.218;2023-04-01T00:04:53;-23406.28;;;7.52;100.00
29385;BME280;16367;48.736;9.218;2023-04-01T00:06:55;-23406.28;;;7.52;100.00
29385;BME280;16367;48.736;9.218;2023-04-01T00:08:58;-23405.78;;;7.50;100.00
29385;BME280;16367;48.736;9.218;2023-04-01T00:11:01;-23405.94;;;7.51;100.00
29385;BME280;16367;48.736;9.218;2023-04-01T00:13:03;-23408.50;;;7.59;100.00
29385;BME280;16367;48.736;9.218;2023-04-01T00:15:08;-23407.84;;;7.57;100.00
29385;BME280;16367;48.736;9.218;2023-04-01T00:17:13;-23408.16;;;7.58;100.00
29385;BME280;16367;48.736;9.218;2023-04-01T00:19:16;-23409.75;;;7.63;100.00
29385;BME280;16367;48.736;9.218;2023-04-01T00:21:19;-23408.97;;;7.61;100.00
29385;BME280;16367;48.736;9.218;2023-04-01T00:23:23;-23409.75;;;7.63;100.00
29385;BME280;16367;48.736;9.218;2023-04-01T00:25:26;-23409.13;;;7.61;100.00
29385;BME280;16367;48.736;9.218;2023-04-01T00:27:28;-23408.66;;;7.60;100.00
29385;BME280;16367;48.736;9.218;2023-04-01T00:29:31;-23407.84;;;7.57;100.00
29385;BME280;16367;48.736;9.218;2023-04-01T00:31:34;-23407.84;;;7.57;100.00
29385;BME280;16367;48.736;9.218;2023-04-01T00:33:38;-23407.84;;;7.57;100.00
29385;BME280;16367;48.736;9.218;2023-04-01T00:35:42;-23408.34;;;7.59;100.00
29385;BME280;16367;48.736;9.218;2023-04-01T00:37:45;-23407.69;;;7.57;100.00
29385;BME280;16367;48.736;9.218;2023-04-01T00:39:48;-23406.91;;;7.54;100.00
29385;BME280;16367;48.736;9.218;2023-04-01T00:41:51;-23407.38;;;7.56;100.00
29385;BME280;16367;48.736;9.218;2023-04-01T00:44:14;-23408.81;;;7.60;100.00
29385;BME280;16367;48.736;9.218;2023-04-01T00:46:17;-23408.97;;;7.61;100.00
29385;BME280;16367;48.736;9.218;2023-04-01T00:48:22;-23410.72;;;7.66;100.00
29385;BME280;16367;48.736;9.218;2023-04-01T00:50:28;-23410.06;;;7.64;100.00
29385;BME280;16367;48.736;9.218;2023-04-01T00:52:32;-23408.81;;;7.60;100.00
29385;BME280;16367;48.736;9.218;2023-04-01T00:54:36;-23408.66;;;7.60;100.00
29385;BME280;16367;48.736;9.218;2023-04-01T00:56:45;-23411.19;;;7.68;100.00
29385;BME280;16367;48.736;9.218;2023-04-01T00:58:52;-23410.06;;;7.64;100.00
29385;BME280;16367;48.736;9.218;2023-04-01T01:00:57;-23409.44;;;7.62;100.00
29385;BME280;16367;48.736;9.218;2023-04-01T01:03:01;-23410.25;;;7.65;100.00
29385;BME280;16367;48.736;9.218;2023-04-01T01:05:04;-23410.88;;;7.67;100.00
29385;BME280;16367;48.736;9.218;2023-04-01T01:07:19;-23409.91;;;7.64;100.00
29385;BME280;16367;48.736;9.218;2023-04-01T01:09:30;-23411.97;;;7.70;100.00
29385;BME280;16367;48.736;9.218;2023-04-01T01:11:37;-23411.66;;;7.69;100.00
29385;BME280;16367;48.736;9.218;2023-04-01T01:13:53;-23409.44;;;7.62;100.00
29385;BME280;16367;48.736;9.218;2023-04-01T01:16:00;-23407.53;;;7.56;100.00
29385;BME280;16367;48.736;9.218;2023-04-01T01:18:12;-23407.84;;;7.57;100.00
29385;BME280;16367;48.736;9.218;2023-04-01T01:20:49;-23407.22;;;7.55;100.00
29385;BME280;16367;48.736;9.218;2023-04-01T01:25:40;-23407.84;;;7.57;100.00
29385;BME280;16367;48.736;9.218;2023-04-01T01:27:49;-23408.16;;;7.58;100.00
29385;BME280;16367;48.736;9.218;2023-04-01T01:30:10;-23407.22;;;7.55;100.00
29385;BME280;16367;48.736;9.218;2023-04-01T01:32:30;-23408.97;;;7.61;100.00
29385;BME280;16367;48.736;9.218;2023-04-01T01:34:40;-23407.69;;;7.57;100.00
29385;BME280;16367;48.736;9.218;2023-04-01T01:36:53;-23406.28;;;7.52;100.00
29385;BME280;16367;48.736;9.218;2023-04-01T01:38:57;-23407.53;;;7.56;100.00
29385;BME280;16367;48.736;9.218;2023-04-01T01:41:02;-23405.94;;;7.51;100.00
29385;BME280;16367;48.736;9.218;2023-04-01T01:43:10;-23407.22;;;7.55;100.00
29385;BME280;16367;48.736;9.218;2023-04-01T01:45:15;-23407.53;;;7.56;100.00
29385;BME280;16367;48.736;9.218;2023-04-01T01:47:20;-23405.63;;;7.50;100.00
29385;BME280;16367;48.736;9.218;2023-04-01T01:49:25;-23404.84;;;7.47;100.00
29385;BME280;16367;48.736;9.218;2023-04-01T01:51:31;-23404.34;;;7.46;100.00
29385;BME280;16367;48.736;9.218;2023-04-01T01:53:35;-23402.78;;;7.41;100.00
29385;BME280;16367;48.736;9.218;2023-04-01T01:55:40;-23402.63;;;7.40;100.00
29385;BME280;16367;48.736;9.218;2023-04-01T01:57:44;-23403.88;;;7.44;100.00
29385;BME280;16367;48.736;9.218;2023-04-01T01:59:48;-23401.97;;;7.38;100.00
29385;BME280;16367;48.736;9.218;2023-04-01T02:01:55;-23402.13;;;7.39;100.00
29385;BME280;16367;48.736;9.218;2023-04-01T02:04:00;-23402.13;;;7.39;100.00
29385;BME280;16367;48.736;9.218;2023-04-01T02:06:06;-23401.19;;;7.36;100.00
29385;BME280;16367;48.736;9.218;2023-04-01T02:08:10;-23401.81;;;7.38;100.00
29385;BME280;16367;48.736;9.218;2023-04-01T02:10:17;-23402.63;;;7.40;100.00
29385;BME280;16367;48.736;9.218;2023-04-01T02:12:22;-23401.19;;;7.36;100.00
29385;BME280;16367;48.736;9.218;2023-04-01T02:14:28;-23401.50;;;7.37;100.00
29385;BME280;16367;48.736;9.218;2023-04-01T02:16:37;-23402.13;;;7.39;100.00
29385;BME280;16367;48.736;9.218;2023-04-01T02:18:43;-23401.50;;;7.37;100.00
29385;BME280;16367;48.736;9.218;2023-04-01T02:20:49;-23401.19;;;7.36;100.00
29385;BME280;16367;48.736;9.218;2023-04-01T02:22:53;-23399.91;;;7.32;100.00
29385;BME280;16367;48.736;9.218;2023-04-01T02:25:00;-23398.78;;;7.28;100.00
29385;BME280;16367;48.736;9.218;2023-04-01T02:27:05;-23398.31;;;7.27;100.00
29385;BME280;16367;48.736;9.218;2023-04-01T02:29:09;-23397.38;;;7.24;100.00
29385;BME280;16367;48.736;9.218;2023-04-01T02:31:14;-23399.28;;;7.30;100.00
29385;BME280;16367;48.736;9.218;2023-04-01T02:33:18;-23398.66;;;7.28;100.00
29385;BME280;16367;48.736;9.218;2023-04-01T02:35:22;-23396.72;;;7.22;100.00
29385;BME280;16367;48.736;9.218;2023-04-01T02:37:25;-23396.41;;;7.21;100.00
29385;BME280;16367;48.736;9.218;2023-04-01T02:39:28;-23396.25;;;7.20;100.00
29385;BME280;16367;48.736;9.218;2023-04-01T02:41:31;-23395.31;;;7.17;100.00
29385;BME280;16367;48.736;9.218;2023-04-01T02:43:35;-23397.38;;;7.24;100.00
29385;BME280;16367;48.736;9.218;2023-04-01T02:45:37;-23396.72;;;7.22;100.00
29385;BME280;16367;48.736;9.218;2023-04-01T02:47:40;-23395.16;;;7.17;100.00
29385;BME280;16367;48.736;9.218;2023-04-01T02:49:43;-23395.47;;;7.18;100.00
29385;BME280;16367;48.736;9.218;2023-04-01T02:51:45;-23395.94;;;7.19;100.00
29385;BME280;16367;48.736;9.218;2023-04-01T02:53:48;-23394.50;;;7.15;100.00
29385;BME280;16367;48.736;9.218;2023-04-01T02:55:51;-23393.88;;;7.13;100.00
29385;BME280;16367;48.736;9.218;2023-04-01T02:57:53;-23393.56;;;7.12;100.00
29385;BME280;16367;48.736;9.218;2023-04-01T02:59:57;-23393.22;;;7.11;100.00
29385;BME280;16367;48.736;9.218;2023-04-01T03:02:00;-23393.56;;;7.12;100.00
29385;BME280;16367;48.736;9.218;2023-04-01T03:04:03;-23392.44;;;7.08;100.00
29385;BME280;16367;48.736;9.218;2023-04-01T03:06:07;-23392.59;;;7.09;100.00
29385;BME280;16367;48.736;9.218;2023-04-01T03:08:10;-23391.66;;;7.06;100.00
29385;BME280;16367;48.736;9.218;2023-04-01T03:10:14;-23392.59;;;7.09;100.00
29385;BME280;16367;48.736;9.218;2023-04-01T03:12:16;-23390.69;;;7.03;100.00
29385;BME280;16367;48.736;9.218;2023-04-01T03:14:19;-23391.81;;;7.06;100.00
29385;BME280;16367;48.736;9.218;2023-04-01T03:16:23;-23391.97;;;7.07;100.00
29385;BME280;16367;48.736;9.218;2023-04-01T03:18:26;-23392.28;;;7.08;100.00
29385;BME280;16367;48.736;9.218;2023-04-01T03:20:29;-23393.22;;;7.11;100.00
29385;BME280;16367;48.736;9.218;2023-04-01T03:22:31;-23393.88;;;7.13;100.00
29385;BME280;16367;48.736;9.218;2023-04-01T03:24:34;-23392.59;;;7.09;100.00
29385;BME280;16367;48.736;9.218;2023-04-01T03:26:36;-23393.22;;;7.11;100.00
29385;BME280;16367;48.736;9.218;2023-04-01T03:28:39;-23390.38;;;7.02;100.00
29385;BME280;16367;48.736;9.218;2023-04-01T03:30:42;-23391.00;;;7.04;100.00
29385;BME280;16367;48.736;9.218;2023-04-01T03:32:46;-23391.34;;;7.05;100.00
29385;BME280;16367;48.736;9.218;2023-04-01T03:34:49;-23393.41;;;7.11;100.00
29385;BME280;16367;48.736;9.218;2023-04-01T03:36:51;-23391.97;;;7.07;100.00
29385;BME280;16367;48.736;9.218;2023-04-01T03:38:54;-23392.44;;;7.08;100.00
29385;BME280;16367;48.736;9.218;2023-04-01T03:40:57;-23392.91;;;7.10;100.00
29385;BME280;16367;48.736;9.218;2023-04-01T03:42:59;-23392.59;;;7.09;100.00
29385;BME280;16367;48.736;9.218;2023-04-01T03:45:02;-23391.97;;;7.07;100.00
29385;BME280;16367;48.736;9.218;2023-04-01T03:47:05;-23391.81;;;7.06;100.00
29385;BME280;16367;48.736;9.218;2023-04-01T03:49:11;-23390.53;;;7.02;100.00
29385;BME280;16367;48.736;9.218;2023-04-01T03:51:14;-23389.75;;;7.00;100.00
29385;BME280;16367;48.736;9.218;2023-04-01T03:53:17;-23388.94;;;6.97;100.00
29385;BME280;16367;48.736;9.218;2023-04-01T03:55:20;-23390.53;;;7.02;100.00
29385;BME280;16367;48.736;9.218;2023-04-01T03:57:23;-23390.22;;;7.01;100.00
29385;BME280;16367;48.736;9.218;2023-04-01T03:59:26;-23389.59;;;6.99;100.00
29385;BME280;16367;48.736;9.218;2023-04-01T04:01:29;-23387.19;;;6.92;100.00
29385;BME280;16367;48.736;9.218;2023-04-01T04:03:32;-23386.25;;;6.89;100.00
29385;BME280;16367;48.736;9.218;2023-04-01T04:05:36;-23384.97;;;6.85;100.00
29385;BME280;16367;48.736;9.218;2023-04-01T04:07:38;-23384.97;;;6.85;100.00
29385;BME280;16367;48.736;9.218;2023-04-01T04:09:41;-23383.38;;;6.80;100.00
29385;BME280;16367;48.736;9.218;2023-04-01T04:11:44;-23380.38;;;6.70;100.00
29385;BME280;16367;48.736;9.218;2023-04-01T04:13:47;-23379.09;;;6.66;100.00
29385;BME280;16367;48.736;9.218;2023-04-01T04:15:50;-23377.19;;;6.60;100.00
29385;BME280;16367;48.736;9.218;2023-04-01T04:17:52;-23377.19;;;6.60;100.00
29385;BME280;16367;48.736;9.218;2023-04-01T04:19:55;-23375.75;;;6.55;100.00
29385;BME280;16367;48.736;9.218;2023-04-01T04:21:59;-23377.03;;;6.59;100.00
29385;BME280;16367;48.736;9.218;2023-04-01T04:24:03;-23377.34;;;6.60;100.00
29385;BME280;16367;48.736;9.218;2023-04-01T04:26:07;-23376.56;;;6.58;100.00
29385;BME280;16367;48.736;9.218;2023-04-01T04:28:10;-23375.13;;;6.53;100.00
29385;BME280;16367;48.736;9.218;2023-04-01T04:30:13;-23376.41;;;6.57;100.00
29385;BME280;16367;48.736;9.218;2023-04-01T04:32:16;-23375.13;;;6.53;100.00
29385;BME280;16367;48.736;9.218;2023-04-01T04:34:19;-23375.28;;;6.54;100.00
29385;BME280;16367;48.736;9.218;2023-04-01T04:36:23;-23373.84;;;6.49;100.00
29385;BME280;16367;48.736;9.218;2023-04-01T04:38:27;-23372.25;;;6.44;100.00
29385;BME280;16367;48.736;9.218;2023-04-01T04:40:30;-23372.72;;;6.46;100.00
29385;BME280;16367;48.736;9.218;2023-04-01T04:42:33;-23374.50;;;6.51;100.00
29385;BME280;16367;48.736;9.218;2023-04-01T04:44:35;-23373.53;;;6.48;100.00
29385;BME280;16367;48.736;9.218;2023-04-01T04:46:38;-23374.16;;;6.50;100.00
29385;BME280;16367;48.736;9.218;2023-04-01T04:48:41;-23374.50;;;6.51;100.00
29385;BME280;16367;48.736;9.218;2023-04-01T04:50:46;-23374.50;;;6.51;100.00
29385;BME280;16367;48.736;9.218;2023-04-01T04:52:48;-23375.44;;;6.54;100.00
29385;BME280;16367;48.736;9.218;2023-04-01T04:54:52;-23375.44;;;6.54;100.00
29385;BME280;16367;48.736;9.218;2023-04-01T04:56:55;-23375.13;;;6.53;100.00
29385;BME280;16367;48.736;9.218;2023-04-01T04:58:58;-23375.13;;;6.53;100.00
29385;BME280;16367;48.736;9.218;2023-04-01T05:01:05;-23374.16;;;6.50;100.00
29385;BME280;16367;48.736;9.218;2023-04-01T05:03:09;-23375.59;;;6.55;100.00
29385;BME280;16367;48.736;9.218;2023-04-01T05:05:12;-23376.56;;;6.58;100.00
29385;BME280;16367;48.736;9.218;2023-04-01T05:07:14;-23376.72;;;6.58;100.00
29385;BME280;16367;48.736;9.218;2023-04-01T05:09:17;-23378.13;;;6.63;100.00
29385;BME280;16367;48.736;9.218;2023-04-01T05:11:21;-23377.81;;;6.62;100.00
29385;BME280;16367;48.736;9.218;2023-04-01T05:13:24;-23377.34;;;6.60;100.00
29385;BME280;16367;48.736;9.218;2023-04-01T05:15:27;-23379.88;;;6.68;100.00
29385;BME280;16367;48.736;9.218;2023-04-01T05:17:30;-23378.47;;;6.64;100.00
29385;BME280;16367;48.736;9.218;2023-04-01T05:19:33;-23378.31;;;6.63;100.00
29385;BME280;16367;48.736;9.218;2023-04-01T05:21:35;-23378.31;;;6.63;100.00
29385;BME280;16367;48.736;9.218;2023-04-01T05:23:38;-23382.13;;;6.75;100.00
29385;BME280;16367;48.736;9.218;2023-04-01T05:25:41;-23382.44;;;6.76;100.00
29385;BME280;16367;48.736;9.218;2023-04-01T05:27:45;-23383.38;;;6.80;100.00
29385;BME280;16367;48.736;9.218;2023-04-01T05:29:48;-23383.88;;;6.81;100.00
29385;BME280;16367;48.736;9.218;2023-04-01T05:31:50;-23384.19;;;6.82;100.00
29385;BME280;16367;48.736;9.218;2023-04-01T05:33:53;-23385.28;;;6.86;100.00
29385;BME280;16367;48.736;9.218;2023-04-01T05:35:56;-23390.38;;;7.02;100.00
29385;BME280;16367;48.736;9.218;2023-04-01T05:37:58;-23391.34;;;7.05;100.00
29385;BME280;16367;48.736;9.218;2023-04-01T05:40:02;-23393.09;;;7.10;100.00
29385;BME280;16367;48.736;9.218;2023-04-01T05:42:06;-23395.94;;;7.19;100.00
29385;BME280;16367;48.736;9.218;2023-04-01T05:44:11;-23394.81;;;7.16;100.00
29385;BME280;16367;48.736;9.218;2023-04-01T05:46:14;-23400.53;;;7.34;100.00
29385;BME280;16367;48.736;9.218;2023-04-01T05:48:17;-23400.72;;;7.34;100.00
29385;BME280;16367;48.736;9.218;2023-04-01T05:50:20;-23403.56;;;7.43;100.00
29385;BME280;16367;48.736;9.218;2023-04-01T05:52:23;-23402.44;;;7.40;100.00
29385;BME280;16367;48.736;9.218;2023-04-01T05:54:26;-23401.66;;;7.37;100.00
29385;BME280;16367;48.736;9.218;2023-04-01T05:56:29;-23402.78;;;7.41;100.00
29385;BME280;16367;48.736;9.218;2023-04-01T05:58:32;-23407.38;;;7.56;100.00
29385;BME280;16367;48.736;9.218;2023-04-01T06:00:36;-23408.00;;;7.58;100.00
29385;BME280;16367;48.736;9.218;2023-04-01T06:02:38;-23408.16;;;7.58;100.00
29385;BME280;16367;48.736;9.218;2023-04-01T06:04:43;-23409.44;;;7.62;100.00
29385;BME280;16367;48.736;9.218;2023-04-01T06:06:46;-23414.38;;;7.78;100.00
29385;BME280;16367;48.736;9.218;2023-04-01T06:08:49;-23412.94;;;7.73;100.00
29385;BME280;16367;48.736;9.218;2023-04-01T06:11:01;-23414.53;;;7.78;100.00
29385;BME280;16367;48.736;9.218;2023-04-01T06:13:11;-23416.44;;;7.84;100.00
29385;BME280;16367;48.736;9.218;2023-04-01T06:15:36;-23414.69;;;7.79;100.00
29385;BME280;16367;48.736;9.218;2023-04-01T06:17:56;-23415.78;;;7.82;100.00
29385;BME280;16367;48.736;9.218;2023-04-01T06:20:07;-23421.19;;;7.99;100.00
29385;BME280;16367;48.736;9.218;2023-04-01T06:22:32;-23419.59;;;7.94;100.00
29385;BME280;16367;48.736;9.218;2023-04-01T06:24:47;-23423.41;;;8.06;100.00
29385;BME280;16367;48.736;9.218;2023-04-01T06:27:02;-23422.47;;;8.03;100.00
29385;BME280;16367;48.736;9.218;2023-04-01T06:29:24;-23426.75;;;8.17;100.00
29385;BME280;16367;48.736;9.218;2023-04-01T06:31:50;-23425.00;;;8.11;100.00
29385;BME280;16367;48.736;9.218;2023-04-01T06:34:08;-23424.06;;;8.08;100.00
29385;BME280;16367;48.736;9.218;2023-04-01T06:36:39;-23424.06;;;8.08;100.00
29385;BME280;16367;48.736;9.218;2023-04-01T06:38:57;-23425.63;;;8.13;100.00
29385;BME280;16367;48.736;9.218;2023-04-01T06:41:26;-23425.63;;;8.13;100.00
29385;BME280;16367;48.736;9.218;2023-04-01T06:43:40;-23428.34;;;8.22;100.00
29385;BME280;16367;48.736;9.218;2023-04-01T06:45:54;-23427.53;;;8.19;100.00
29385;BME280;16367;48.736;9.218;2023-04-01T06:48:13;-23424.06;;;8.08;100.00
29385;BME280;16367;48.736;9.218;2023-04-01T06:50:24;-23427.84;;;8.20;100.00
29385;BME280;16367;48.736;9.218;2023-04-01T06:52:37;-23426.28;;;8.15;100.00
29385;BME280;16367;48.736;9.218;2023-04-01T06:54:47;-23423.25;;;8.06;100.00
29385;BME280;16367;48.736;9.218;2023-04-01T06:56:54;-23426.44;;;8.16;100.00
29385;BME280;16367;48.736;9.218;2023-04-01T06:59:02;-23427.53;;;8.19;100.00
29385;BME280;16367;48.736;9.218;2023-04-01T07:01:10;-23428.19;;;8.21;100.00
29385;BME280;16367;48.736;9.218;2023-04-01T07:03:21;-23426.13;;;8.15;100.00
29385;BME280;16367;48.736;9.218;2023-04-01T07:05:34;-23425.97;;;8.14;100.00
29385;BME280;16367;48.736;9.218;2023-04-01T07:07:40;-23426.28;;;8.15;100.00
29385;BME280;16367;48.736;9.218;2023-04-01T07:09:49;-23432.00;;;8.34;100.00
29385;BME280;16367;48.736;9.218;2023-04-01T07:11:53;-23431.34;;;8.32;100.00
29385;BME280;16367;48.736;9.218;2023-04-01T07:14:01;-23428.50;;;8.22;100.00
29385;BME280;16367;48.736;9.218;2023-04-01T07:16:12;-23436.75;;;8.49;100.00
29385;BME280;16367;48.736;9.218;2023-04-01T07:18:23;-23432.31;;;8.35;100.00
29385;BME280;16367;48.736;9.218;2023-04-01T07:20:29;-23431.34;;;8.32;100.00
29385;BME280;16367;48.736;9.218;2023-04-01T07:22:34;-23428.19;;;8.21;100.00
29385;BME280;16367;48.736;9.218;2023-04-01T07:24:40;-23426.59;;;8.16;100.00
29385;BME280;16367;48.736;9.218;2023-04-01T07:26:43;-23425.63;;;8.13;100.00
29385;BME280;16367;48.736;9.218;2023-04-01T07:28:48;-23429.44;;;8.25;100.00
29385;BME280;16367;48.736;9.218;2023-04-01T07:31:05;-23425.63;;;8.13;100.00
29385;BME280;16367;48.736;9.218;2023-04-01T07:33:15;-23430.09;;;8.27;100.00
29385;BME280;16367;48.736;9.218;2023-04-01T07:35:25;-23428.66;;;8.23;100.00
29385;BME280;16367;48.736;9.218;2023-04-01T07:37:38;-23430.56;;;8.29;100.00
29385;BME280;16367;48.736;9.218;2023-04-01T07:39:51;-23430.41;;;8.29;100.00
29385;BME280;16367;48.736;9.218;2023-04-01T07:42:02;-23427.72;;;8.20;100.00
29385;BME280;16367;48.736;9.218;2023-04-01T07:44:14;-23432.78;;;8.36;100.00
29385;BME280;16367;48.736;9.218;2023-04-01T07:46:27;-23430.09;;;8.27;100.00
29385;BME280;16367;48.736;9.218;2023-04-01T07:48:39;-23428.81;;;8.23;100.00
29385;BME280;16367;48.736;9.218;2023-04-01T07:50:52;-23431.03;;;8.31;100.00
29385;BME280;16367;48.736;9.218;2023-04-01T07:53:06;-23432.31;;;8.35;100.00
29385;BME280;16367;48.736;9.218;2023-04-01T07:55:15;-23435.66;;;8.45;100.00
29385;BME280;16367;48.736;9.218;2023-04-01T07:57:22;-23437.88;;;8.52;100.00
29385;BME280;16367;48.736;9.218;2023-04-01T07:59:35;-23434.22;;;8.41;100.00
29385;BME280;16367;48.736;9.218;2023-04-01T08:01:47;-23436.13;;;8.47;100.00
29385;BME280;16367;48.736;9.218;2023-04-01T08:04:07;-23436.91;;;8.49;100.00
29385;BME280;16367;48.736;9.218;2023-04-01T08:06:20;-23438.34;;;8.54;100.00
29385;BME280;16367;48.736;9.218;2023-04-01T08:08:36;-23436.44;;;8.48;100.00
29385;BME280;16367;48.736;9.218;2023-04-01T08:10:48;-23438.97;;;8.56;100.00
29385;BME280;16367;48.736;9.218;2023-04-01T08:12:58;-23438.66;;;8.55;100.00
29385;BME280;16367;48.736;9.218;2023-04-01T08:15:11;-23438.97;;;8.56;100.00
29385;BME280;16367;48.736;9.218;2023-04-01T08:17:20;-23438.97;;;8.56;100.00
29385;BME280;16367;48.736;9.218;2023-04-01T08:19:35;-23439.13;;;8.56;100.00
29385;BME280;16367;48.736;9.218;2023-04-01T08:21:45;-23438.19;;;8.53;100.00
29385;BME280;16367;48.736;9.218;2023-04-01T08:23:52;-23440.09;;;8.59;100.00
29385;BME280;16367;48.736;9.218;2023-04-01T08:26:02;-23441.69;;;8.64;100.00
29385;BME280;16367;48.736;9.218;2023-04-01T08:28:13;-23438.34;;;8.54;100.00
29385;BME280;16367;48.736;9.218;2023-04-01T08:30:20;-23442.94;;;8.68;100.00
29385;BME280;16367;48.736;9.218;2023-04-01T08:32:27;-23443.75;;;8.71;100.00
29385;BME280;16367;48.736;9.218;2023-04-01T08:34:34;-23445.31;;;8.76;100.00
29385;BME280;16367;48.736;9.218;2023-04-01T08:36:41;-23444.69;;;8.74;100.00
29385;BME280;16367;48.736;9.218;2023-04-01T08:38:51;-23442.31;;;8.66;100.00
29385;BME280;16367;48.736;9.218;2023-04-01T08:41:31;-23442.78;;;8.68;100.00
29385;BME280;16367;48.736;9.218;2023-04-01T08:43:55;-23434.22;;;8.41;100.00
29385;BME280;16367;48.736;9.218;2023-04-01T08:46:24;-23434.53;;;8.42;100.00
29385;BME280;16367;48.736;9.218;2023-04-01T08:48:53;-23430.72;;;8.30;100.00
29385;BME280;16367;48.736;9.218;2023-04-01T08:51:31;-23430.09;;;8.27;
29385;BME280;16367;48.736;9.218;2023-04-01T08:54:01;-23426.75;;;8.17;100.00
29385;BME280;16367;48.736;9.218;2023-04-01T08:56:13;-23423.88;;;8.08;100.00
29385;BME280;16367;48.736;9.218;2023-04-01T09:00:53;-23418.97;;;7.92;100.00
29385;BME280;16367;48.736;9.218;2023-04-01T09:03:26;-23419.28;;;7.93;100.00
29385;BME280;16367;48.736;9.218;2023-04-01T09:06:12;-23418.03;;;7.89;100.00
29385;BME280;16367;48.736;9.218;2023-04-01T09:08:33;-23421.81;;;8.01;100.00
29385;BME280;16367;48.736;9.218;2023-04-01T09:10:53;-23420.56;;;7.97;100.00
29385;BME280;16367;48.736;9.218;2023-04-01T09:13:08;-23421.81;;;8.01;100.00
29385;BME280;16367;48.736;9.218;2023-04-01T09:15:27;-23427.22;;;8.18;100.00
29385;BME280;16367;48.736;9.218;2023-04-01T09:20:29;-23438.97;;;8.56;100.00
29385;BME280;16367;48.736;9.218;2023-04-01T09:22:46;-23437.22;;;8.50;100.00
29385;BME280;16367;48.736;9.218;2023-04-01T09:25:12;-23439.78;;;8.58;100.00
29385;BME280;16367;48.736;9.218;2023-04-01T09:27:26;-23444.53;;;8.73;100.00
29385;BME280;16367;48.736;9.218;2023-04-01T09:29:46;-23449.44;;;8.89;100.00
29385;BME280;16367;48.736;9.218;2023-04-01T09:32:09;-23447.88;;;8.84;100.00
29385;BME280;16367;48.736;9.218;2023-04-01T09:34:27;-23451.03;;;8.94;100.00
29385;BME280;16367;48.736;9.218;2023-04-01T09:36:44;-23465.63;;;9.40;100.00
29385;BME280;16367;48.736;9.218;2023-04-01T09:38:56;-23469.13;;;9.51;100.00
29385;BME280;16367;48.736;9.218;2023-04-01T09:41:05;-23458.97;;;9.19;100.00
29385;BME280;16367;48.736;9.218;2023-04-01T09:43:28;-23452.47;;;8.98;100.00
29385;BME280;16367;48.736;9.218;2023-04-01T09:45:40;-23453.25;;;9.01;100.00
29385;BME280;16367;48.736;9.218;2023-04-01T09:47:59;-23444.06;;;8.72;100.00
29385;BME280;16367;48.736;9.218;2023-04-01T09:50:24;-23448.81;;;8.87;100.00
29385;BME280;16367;48.736;9.218;2023-04-01T09:52:38;-23441.84;;;8.65;100.00
29385;BME280;16367;48.736;9.218;2023-04-01T09:55:01;-23446.59;;;8.80;100.00
29385;BME280;16367;48.736;9.218;2023-04-01T09:57:32;-23443.41;;;8.70;100.00
29385;BME280;16367;48.736;9.218;2023-04-01T10:07:58;-23438.34;;;8.54;100.00
29385;BME280;16367;48.736;9.218;2023-04-01T10:10:39;-23441.69;;;8.64;100.00
29385;BME280;16367;48.736;9.218;2023-04-01T10:13:11;-23442.16;;;8.66;100.00
29385;BME280;16367;48.736;9.218;2023-04-01T10:18:37;-23444.53;;;8.73;100.00
29385;BME280;16367;48.736;9.218;2023-04-01T10:21:06;-23441.69;;;8.64;100.00
29385;BME280;16367;48.736;9.218;2023-04-01T10:23:21;-23442.78;;;8.68;100.00
29385;BME280;16367;48.736;9.218;2023-04-01T10:31:09;-23459.44;;;9.21;99.64
29385;BME280;16367;48.736;9.218;2023-04-01T10:33:40;-23458.66;;;9.18;98.48
29385;BME280;16367;48.736;9.218;2023-04-01T10:36:20;-23458.97;;;9.19;98.12
29385;BME280;16367;48.736;9.218;2023-04-01T10:41:45;-23467.22;;;9.45;97.14
29385;BME280;16367;48.736;9.218;2023-04-01T10:49:21;-23484.66;;;10.01;93.86
29385;BME280;16367;48.736;9.218;2023-04-01T10:51:40;-23471.97;;;9.60;91.96
29385;BME280;16367;48.736;9.218;2023-04-01T10:54:16;-23482.59;;;9.94;92.95
29385;BME280;16367;48.736;9.218;2023-04-01T10:56:42;-23476.72;;;9.75;90.83
29385;BME280;16367;48.736;9.218;2023-04-01T11:04:34;-23471.19;;;9.58;92.44
29385;BME280;16367;48.736;9.218;2023-04-01T11:07:17;-23469.75;;;9.53;91.99
29385;BME280;16367;48.736;9.218;2023-04-01T11:12:31;-23469.13;;;9.51;98.45
29385;BME280;16367;48.736;9.218;2023-04-01T11:20:24;-23475.47;;;9.71;95.27
29385;BME280;16367;48.736;9.218;2023-04-01T11:22:45;-23477.38;;;9.77;94.44
29385;BME280;16367;48.736;9.218;2023-04-01T11:25:09;-23480.84;;;9.89;92.51
29385;BME280;16367;48.736;9.218;2023-04-01T11:27:26;-23479.25;;;9.84;90.69
29385;BME280;16367;48.736;9.218;2023-04-01T11:29:57;-23477.38;;;9.77;91.35
29385;BME280;16367;48.736;9.218;2023-04-01T11:32:19;-23479.59;;;9.85;90.42
29385;BME280;16367;48.736;9.218;2023-04-01T11:34:36;-23487.50;;;10.10;89.69
29385;BME280;16367;48.736;9.218;2023-04-01T11:36:54;-23482.44;;;9.94;90.51
29385;BME280;16367;48.736;9.218;2023-04-01T11:39:13;-23491.78;;;10.23;87.74
29385;BME280;16367;48.736;9.218;2023-04-01T11:41:30;-23493.84;;;10.30;87.44
29385;BME280;16367;48.736;9.218;2023-04-01T11:43:38;-23480.69;;;9.88;86.17
29385;BME280;16367;48.736;9.218;2023-04-01T11:45:47;-23485.75;;;10.04;87.83
29385;BME280;16367;48.736;9.218;2023-04-01T11:48:01;-23478.94;;;9.83;87.80
29385;BME280;16367;48.736;9.218;2023-04-01T11:50:21;-23480.06;;;9.86;87.79
29385;BME280;16367;48.736;9.218;2023-04-01T11:52:51;-23479.44;;;9.84;87.00
29385;BME280;16367;48.736;9.218;2023-04-01T11:55:10;-23487.03;;;10.08;86.93
29385;BME280;16367;48.736;9.218;2023-04-01T12:00:02;-23487.66;;;10.10;87.06
29385;BME280;16367;48.736;9.218;2023-04-01T12:02:20;-23481.97;;;9.92;86.69
29385;BME280;16367;48.736;9.218;2023-04-01T12:04:36;-23481.47;;;9.91;87.40
29385;BME280;16367;48.736;9.218;2023-04-01T12:06:49;-23472.59;;;9.62;88.20
29385;BME280;16367;48.736;9.218;2023-04-01T12:09:02;-23474.81;;;9.69;88.76